createdAt,value
2023-03-11T00:01:09.935Z,8.68
2023-03-11T00:03:37.344Z,7.20
2023-03-11T00:06:04.906Z,9.57
2023-03-11T00:08:32.410Z,12.45
2023-03-11T00:11:00.766Z,7.32
2023-03-11T00:13:30.348Z,7.93
2023-03-11T00:15:58.050Z,8.38
2023-03-11T00:18:27.254Z,6.63
2023-03-11T00:20:56.274Z,8.50
2023-03-11T00:23:24.130Z,9.35
2023-03-11T00:25:51.619Z,11.63
2023-03-11T00:28:18.889Z,9.10
2023-03-11T00:30:47.146Z,7.10
2023-03-11T00:33:16.696Z,6.15
2023-03-11T00:35:44.567Z,6.47
2023-03-11T00:38:15.338Z,10.15
2023-03-11T00:40:43.769Z,8.55
2023-03-11T00:43:11.448Z,8.88
2023-03-11T00:45:39.137Z,7.75
2023-03-11T00:48:07.023Z,6.97
2023-03-11T00:50:36.349Z,8.55
2023-03-11T00:53:05.195Z,6.80
2023-03-11T00:55:34.831Z,9.80
2023-03-11T00:58:06.973Z,10.02
2023-03-11T01:00:46.882Z,8.15
2023-03-11T01:03:14.329Z,7.68
2023-03-11T01:05:41.702Z,6.22
2023-03-11T01:08:08.968Z,7.68
2023-03-11T01:10:36.756Z,7.78
2023-03-11T01:13:04.729Z,9.93
2023-03-11T01:15:35.355Z,8.65
2023-03-11T01:18:03.197Z,9.60
2023-03-11T01:20:32.954Z,7.57
2023-03-11T01:23:00.119Z,7.45
2023-03-11T01:25:28.785Z,8.25
2023-03-11T01:27:59.177Z,6.53
2023-03-11T01:30:27.850Z,6.97
2023-03-11T01:32:56.909Z,7.80
2023-03-11T01:35:26.560Z,8.02
2023-03-11T01:37:54.550Z,9.23
2023-03-11T01:40:27.457Z,7.00
2023-03-11T01:42:55.136Z,6.97
2023-03-11T01:45:34.451Z,6.60
2023-03-11T01:48:01.904Z,6.70
2023-03-11T01:50:38.488Z,6.90
2023-03-11T01:53:06.609Z,5.00
2023-03-11T01:55:34.674Z,5.93
2023-03-11T01:58:05.856Z,6.63
2023-03-11T02:00:33.458Z,7.25
2023-03-11T02:03:03.365Z,7.80
2023-03-11T02:05:30.689Z,6.95
2023-03-11T02:07:59.126Z,6.70
2023-03-11T02:10:31.400Z,7.70
2023-03-11T02:12:59.322Z,6.60
2023-03-11T02:15:30.652Z,6.15
2023-03-11T02:17:59.462Z,6.35
2023-03-11T02:20:37.181Z,6.38
2023-03-11T02:23:10.130Z,9.75
2023-03-11T02:26:09.714Z,7.50
2023-03-11T02:28:37.786Z,6.70
2023-03-11T02:31:05.422Z,11.30
2023-03-11T02:33:36.088Z,6.82
2023-03-11T02:36:04.379Z,9.60
2023-03-11T02:38:31.929Z,11.50
2023-03-11T02:41:01.995Z,9.07
2023-03-11T02:43:41.418Z,6.82
2023-03-11T02:46:12.821Z,8.65
2023-03-11T02:48:40.325Z,7.03
2023-03-11T02:51:07.636Z,10.68
2023-03-11T02:53:41.039Z,8.43
2023-03-11T02:56:08.351Z,7.28
2023-03-11T02:58:36.084Z,10.43
2023-03-11T03:01:03.656Z,7.28
2023-03-11T03:03:30.957Z,7.57
2023-03-11T03:05:58.254Z,7.22
2023-03-11T03:08:25.497Z,8.88
2023-03-11T03:10:54.416Z,9.02
2023-03-11T03:13:21.690Z,11.20
2023-03-11T03:15:48.910Z,8.25
2023-03-11T03:18:16.209Z,8.15
2023-03-11T03:20:44.107Z,7.88
2023-03-11T03:23:11.664Z,6.78
2023-03-11T03:25:42.847Z,8.30
2023-03-11T03:28:11.784Z,8.68
2023-03-11T03:30:41.865Z,7.45
2023-03-11T03:33:10.199Z,7.07
2023-03-11T03:35:42.542Z,8.05
2023-03-11T03:38:15.952Z,7.75
2023-03-11T03:40:48.066Z,8.38
2023-03-11T03:43:18.157Z,6.40
2023-03-11T03:45:55.182Z,6.85
2023-03-11T03:48:22.875Z,10.52
2023-03-11T03:50:50.095Z,12.02
2023-03-11T03:53:17.715Z,8.73
2023-03-11T03:55:45.315Z,8.27
2023-03-11T03:58:13.394Z,8.02
2023-03-11T04:00:41.086Z,6.22
2023-03-11T04:03:09.066Z,15.52
2023-03-11T04:05:44.154Z,11.35
2023-03-11T04:08:12.908Z,10.50
2023-03-11T04:10:40.105Z,7.60
2023-03-11T04:13:07.482Z,7.38
2023-03-11T04:15:34.788Z,15.10
2023-03-11T04:18:02.099Z,15.70
2023-03-11T04:20:29.347Z,20.73
2023-03-11T04:22:56.644Z,19.85
2023-03-11T04:25:25.079Z,10.95
2023-03-11T04:27:52.589Z,11.48
2023-03-11T04:30:21.079Z,7.82
2023-03-11T04:32:50.910Z,11.23
2023-03-11T04:35:19.122Z,11.18
2023-03-11T04:37:46.653Z,11.48
2023-03-11T04:40:15.221Z,15.85
2023-03-11T04:42:43.257Z,22.17
2023-03-11T04:45:11.363Z,23.92
2023-03-11T04:47:40.084Z,12.85
2023-03-11T04:50:07.612Z,9.30
2023-03-11T04:52:35.631Z,10.25
2023-03-11T04:55:03.354Z,16.58
2023-03-11T04:57:32.659Z,12.57
2023-03-11T05:00:08.936Z,26.10
2023-03-11T05:02:38.202Z,34.13
2023-03-11T05:05:07.112Z,55.75
2023-03-11T05:07:35.067Z,30.77
2023-03-11T05:10:04.060Z,23.20
2023-03-11T05:12:33.268Z,16.33
2023-03-11T05:15:00.790Z,17.38
2023-03-11T05:17:28.004Z,22.42
2023-03-11T05:19:55.598Z,8.05
2023-03-11T05:22:27.744Z,8.15
2023-03-11T05:24:55.370Z,8.90
2023-03-11T05:27:23.438Z,11.48
2023-03-11T05:29:56.404Z,9.35
2023-03-11T05:32:25.202Z,8.85
2023-03-11T05:34:53.837Z,10.77
2023-03-11T05:37:21.398Z,10.90
2023-03-11T05:39:51.695Z,10.23
2023-03-11T05:42:21.369Z,9.00
2023-03-11T05:44:50.648Z,13.40
2023-03-11T05:47:19.469Z,15.90
2023-03-11T05:49:49.094Z,16.52
2023-03-11T05:52:18.481Z,15.57
2023-03-11T05:54:48.968Z,13.57
2023-03-11T05:57:17.722Z,10.27
2023-03-11T05:59:45.814Z,11.77
2023-03-11T06:02:13.077Z,18.55
2023-03-11T06:04:41.812Z,10.32
2023-03-11T06:07:12.306Z,10.50
2023-03-11T06:09:40.604Z,16.98
2023-03-11T06:12:12.484Z,14.93
2023-03-11T06:14:58.117Z,17.02
2023-03-11T06:17:25.589Z,12.18
2023-03-11T06:19:53.158Z,17.33
2023-03-11T06:22:21.337Z,15.48
2023-03-11T06:24:48.584Z,16.58
2023-03-11T06:27:16.017Z,14.15
2023-03-11T06:29:43.283Z,15.98
2023-03-11T06:32:10.851Z,15.45
2023-03-11T06:34:41.218Z,16.25
2023-03-11T06:37:08.591Z,11.55
2023-03-11T06:39:35.799Z,26.67
2023-03-11T06:42:03.334Z,68.85
2023-03-11T06:44:30.545Z,35.72
2023-03-11T06:46:57.893Z,13.05
2023-03-11T06:49:25.185Z,9.93
2023-03-11T06:51:52.569Z,9.15
2023-03-11T06:54:19.859Z,8.43
2023-03-11T06:56:50.595Z,9.85
2023-03-11T06:59:18.062Z,7.35
2023-03-11T07:01:45.901Z,11.82
2023-03-11T07:04:15.118Z,8.85
2023-03-11T07:06:43.617Z,10.35
2023-03-11T07:09:18.727Z,7.15
2023-03-11T07:11:46.810Z,6.00
2023-03-11T07:14:20.502Z,6.43
2023-03-11T07:16:52.202Z,2.95
2023-03-11T07:19:27.182Z,3.47
2023-03-11T07:21:54.470Z,4.45
2023-03-11T07:24:21.929Z,4.15
2023-03-11T07:26:49.117Z,4.63
2023-03-11T07:29:16.293Z,6.93
2023-03-11T07:31:43.669Z,3.70
2023-03-11T07:34:12.364Z,4.45
2023-03-11T07:36:42.193Z,6.05
2023-03-11T07:39:15.270Z,13.00
2023-03-11T07:41:42.810Z,4.50
2023-03-11T07:44:13.057Z,3.15
2023-03-11T07:46:40.995Z,3.75
2023-03-11T07:49:08.781Z,5.10
2023-03-11T07:51:37.858Z,2.63
2023-03-11T07:54:05.404Z,4.93
2023-03-11T07:56:34.670Z,3.20
2023-03-11T07:59:03.720Z,11.77
2023-03-11T08:01:47.151Z,4.13
2023-03-11T08:04:17.200Z,5.10
2023-03-11T08:06:47.412Z,4.43
2023-03-11T08:09:14.944Z,6.05
2023-03-11T08:11:44.500Z,5.47
2023-03-11T08:14:11.773Z,6.55
2023-03-11T08:16:41.077Z,10.40
2023-03-11T08:19:11.174Z,8.88
2023-03-11T08:21:38.453Z,5.85
2023-03-11T08:24:07.024Z,4.80
2023-03-11T08:26:34.286Z,4.15
2023-03-11T08:29:01.615Z,3.55
2023-03-11T08:31:31.520Z,5.65
2023-03-11T08:34:07.624Z,3.97
2023-03-11T08:36:35.651Z,4.15
2023-03-11T08:39:03.685Z,4.70
2023-03-11T08:41:35.013Z,3.10
2023-03-11T08:44:02.447Z,3.30
2023-03-11T08:46:35.558Z,7.63
2023-03-11T08:49:04.498Z,4.93
2023-03-11T08:51:33.842Z,2.92
2023-03-11T08:54:01.801Z,5.72
2023-03-11T08:56:29.304Z,3.25
2023-03-11T08:58:56.781Z,8.88
2023-03-11T09:01:24.125Z,2.55
2023-03-11T09:03:51.913Z,3.15
2023-03-11T09:06:19.799Z,2.90
2023-03-11T09:08:48.449Z,2.95
2023-03-11T09:11:17.445Z,3.45
2023-03-11T09:13:45.402Z,5.35
2023-03-11T09:16:15.023Z,5.53
2023-03-11T09:18:42.629Z,7.88
2023-03-11T09:21:10.684Z,2.25
2023-03-11T09:23:38.205Z,3.28
2023-03-11T09:26:05.928Z,3.85
2023-03-11T09:28:33.416Z,7.57
2023-03-11T09:31:00.699Z,20.52
2023-03-11T09:33:28.166Z,7.88
2023-03-11T09:35:55.455Z,11.20
2023-03-11T09:38:22.656Z,18.35
2023-03-11T09:41:16.330Z,14.73
2023-03-11T09:43:58.940Z,13.50
2023-03-11T09:46:54.678Z,18.05
2023-03-11T09:49:45.617Z,14.20
2023-03-11T09:52:16.740Z,19.63
2023-03-11T09:54:51.255Z,13.73
2023-03-11T09:59:49.952Z,8.40
2023-03-11T10:02:23.726Z,8.55
2023-03-11T10:05:09.859Z,8.05
2023-03-11T10:07:41.402Z,16.50
2023-03-11T10:10:14.351Z,8.95
2023-03-11T10:12:48.734Z,11.30
2023-03-11T10:15:30.772Z,13.07
2023-03-11T10:18:16.822Z,9.98
2023-03-11T10:20:59.335Z,8.57
2023-03-11T10:23:37.889Z,7.20
2023-03-11T10:26:18.276Z,13.77
2023-03-11T10:29:06.496Z,8.20
2023-03-11T10:32:04.763Z,13.18
2023-03-11T10:34:41.286Z,15.95
2023-03-11T10:37:20.663Z,15.05
2023-03-11T10:39:48.878Z,13.50
2023-03-11T10:42:21.942Z,15.13
2023-03-11T10:44:52.449Z,16.60
2023-03-11T10:47:20.896Z,5.90
2023-03-11T10:49:48.439Z,13.88
2023-03-11T10:52:16.318Z,12.38
2023-03-11T10:54:49.134Z,10.77
2023-03-11T10:57:25.982Z,11.57
2023-03-11T10:59:55.878Z,11.13
2023-03-11T11:02:43.620Z,14.00
2023-03-11T11:05:22.762Z,10.75
2023-03-11T11:07:53.140Z,9.02
2023-03-11T11:10:26.070Z,5.78
2023-03-11T11:12:54.998Z,6.50
2023-03-11T11:15:31.341Z,7.13
2023-03-11T11:18:02.314Z,4.78
2023-03-11T11:20:31.310Z,6.43
2023-03-11T11:23:01.603Z,5.65
2023-03-11T11:25:38.613Z,6.95
2023-03-11T11:28:20.917Z,5.22
2023-03-11T11:31:06.243Z,5.53
2023-03-11T11:33:40.457Z,5.47
2023-03-11T11:36:16.395Z,7.10
2023-03-11T11:38:44.435Z,4.55
2023-03-11T11:41:20.688Z,2.55
2023-03-11T11:43:57.869Z,6.32
2023-03-11T11:46:31.552Z,3.35
2023-03-11T11:49:04.586Z,5.50
2023-03-11T11:51:56.705Z,4.95
2023-03-11T11:54:39.014Z,10.38
2023-03-11T11:57:14.418Z,5.32
2023-03-11T11:59:42.807Z,7.10
2023-03-11T12:02:38.618Z,7.43
2023-03-11T12:05:11.701Z,2.17
2023-03-11T12:08:00.154Z,3.05
2023-03-11T12:11:03.279Z,4.95
2023-03-11T12:14:00.395Z,7.63
2023-03-11T12:16:57.481Z,10.20
2023-03-11T12:19:35.995Z,10.10
2023-03-11T12:22:39.710Z,10.85
2023-03-11T12:25:29.084Z,4.38
2023-03-11T12:27:59.172Z,8.18
2023-03-11T12:30:53.553Z,9.38
2023-03-11T12:33:44.349Z,4.73
2023-03-11T12:36:44.015Z,3.97
2023-03-11T12:39:25.595Z,9.32
2023-03-11T12:42:11.283Z,11.13
2023-03-11T12:44:39.654Z,8.77
2023-03-11T12:47:18.933Z,6.63
2023-03-11T12:49:55.481Z,11.25
2023-03-11T12:52:28.668Z,8.23
2023-03-11T12:54:58.700Z,7.15
2023-03-11T12:57:40.657Z,12.95
2023-03-11T13:00:23.265Z,5.90
2023-03-11T13:03:09.023Z,7.45
2023-03-11T13:05:55.613Z,11.18
2023-03-11T13:08:46.066Z,5.65
2023-03-11T13:11:31.966Z,5.80
2023-03-11T13:14:12.186Z,7.93
2023-03-11T13:16:40.780Z,7.30
2023-03-11T13:19:26.576Z,11.63
2023-03-11T13:21:55.433Z,6.63
2023-03-11T13:24:22.822Z,8.15
2023-03-11T13:26:53.294Z,8.25
2023-03-11T13:29:44.125Z,12.10
2023-03-11T13:32:33.246Z,12.77
2023-03-11T13:35:18.556Z,7.25
2023-03-11T13:38:23.130Z,6.38
2023-03-11T13:40:52.671Z,8.53
2023-03-11T13:43:22.876Z,9.00
2023-03-11T13:46:08.581Z,5.95
2023-03-11T13:48:45.417Z,8.43
2023-03-11T13:51:22.190Z,10.52
2023-03-11T13:54:02.646Z,5.80
2023-03-11T13:56:34.049Z,7.07
2023-03-11T13:59:27.572Z,6.72
2023-03-11T14:01:58.099Z,9.45
2023-03-11T14:04:34.595Z,3.78
2023-03-11T14:07:20.578Z,9.48
2023-03-11T14:09:47.849Z,10.45
2023-03-11T14:12:18.711Z,11.10
2023-03-11T14:14:59.157Z,4.88
2023-03-11T14:17:26.320Z,12.95
2023-03-11T14:20:04.710Z,7.72
2023-03-11T14:22:33.217Z,8.10
2023-03-11T14:25:08.806Z,8.52
2023-03-11T14:27:39.402Z,6.03
2023-03-11T14:30:09.486Z,9.80
2023-03-11T14:32:37.684Z,4.97
2023-03-11T14:35:21.337Z,8.40
2023-03-11T14:37:49.023Z,6.57
2023-03-11T14:40:42.076Z,5.85
2023-03-11T14:43:11.712Z,4.88
2023-03-11T14:45:41.832Z,13.50
2023-03-11T14:48:11.920Z,9.55
2023-03-11T14:50:39.075Z,7.95
2023-03-11T14:53:21.451Z,10.65
2023-03-11T14:56:00.093Z,9.35
2023-03-11T14:58:29.254Z,7.72
2023-03-11T15:00:59.423Z,6.65
2023-03-11T15:03:31.847Z,8.48
2023-03-11T15:06:16.000Z,13.10
2023-03-11T15:08:50.064Z,9.68
2023-03-11T15:11:17.165Z,9.15
2023-03-11T15:13:47.418Z,11.02
2023-03-11T15:16:32.944Z,8.35
2023-03-11T15:19:29.232Z,11.63
2023-03-11T15:21:59.880Z,11.25
2023-03-11T15:24:33.453Z,11.98
2023-03-11T15:27:08.027Z,8.50
2023-03-11T15:32:25.525Z,16.80
2023-03-11T15:35:08.672Z,12.50
2023-03-11T15:37:35.892Z,15.70
2023-03-11T15:40:35.358Z,18.60
2023-03-11T15:43:24.027Z,14.13
2023-03-11T15:45:56.186Z,12.60
2023-03-11T15:48:24.373Z,14.13
2023-03-11T15:50:55.087Z,15.55
2023-03-11T15:53:24.412Z,15.57
2023-03-11T15:55:53.659Z,12.63
2023-03-11T15:58:21.561Z,11.75
2023-03-11T16:00:56.078Z,10.90
2023-03-11T16:03:24.319Z,9.60
2023-03-11T16:05:51.583Z,12.23
2023-03-11T16:08:18.827Z,17.88
2023-03-11T16:10:46.184Z,7.60
2023-03-11T16:13:14.768Z,7.53
2023-03-11T16:15:43.207Z,11.38
2023-03-11T16:18:10.729Z,7.20
2023-03-11T16:20:49.598Z,14.23
2023-03-11T16:23:21.506Z,15.45
2023-03-11T16:25:49.689Z,10.43
2023-03-11T16:28:17.795Z,8.77
2023-03-11T16:30:45.119Z,11.38
2023-03-11T16:33:12.516Z,11.35
2023-03-11T16:35:40.012Z,13.10
2023-03-11T16:38:08.281Z,8.77
2023-03-11T16:40:36.315Z,10.90
2023-03-11T16:43:13.618Z,11.57
2023-03-11T16:45:41.019Z,9.38
2023-03-11T16:48:08.383Z,12.55
2023-03-11T16:50:37.397Z,11.30
2023-03-11T16:53:05.228Z,19.17
2023-03-11T16:55:32.832Z,15.45
2023-03-11T16:58:00.224Z,14.45
2023-03-11T17:00:27.625Z,17.75
2023-03-11T17:02:54.896Z,14.55
2023-03-11T17:05:44.055Z,21.48
2023-03-11T17:08:37.657Z,15.63
2023-03-11T17:14:16.533Z,15.95
2023-03-11T17:16:45.419Z,17.65
2023-03-11T17:19:13.497Z,19.38
2023-03-11T17:21:40.746Z,16.85
2023-03-11T17:24:09.594Z,16.13
2023-03-11T17:26:37.303Z,15.48
2023-03-11T17:29:04.999Z,15.10
2023-03-11T17:31:32.246Z,10.60
2023-03-11T17:33:59.632Z,11.10
2023-03-11T17:36:27.195Z,10.80
2023-03-11T17:38:55.499Z,12.95
2023-03-11T17:41:23.725Z,13.77
2023-03-11T17:43:51.635Z,16.75
2023-03-11T17:46:22.632Z,14.70
2023-03-11T17:48:50.799Z,9.85
2023-03-11T17:51:23.059Z,14.10
2023-03-11T17:53:50.752Z,17.13
2023-03-11T17:56:20.431Z,12.88
2023-03-11T17:58:48.987Z,13.13
2023-03-11T18:01:24.851Z,10.55
2023-03-11T18:03:52.688Z,13.73
2023-03-11T18:06:21.856Z,10.77
2023-03-11T18:08:49.718Z,11.75
2023-03-11T18:11:20.633Z,13.55
2023-03-11T18:13:47.997Z,12.52
2023-03-11T18:16:16.727Z,13.55
2023-03-11T18:18:44.777Z,11.00
2023-03-11T18:21:14.872Z,11.27
2023-03-11T18:23:42.994Z,10.85
2023-03-11T18:26:13.691Z,13.43
2023-03-11T18:28:41.869Z,12.77
2023-03-11T18:31:14.236Z,11.68
2023-03-11T18:33:47.401Z,9.95
2023-03-11T18:36:24.195Z,17.38
2023-03-11T18:38:57.342Z,14.90
2023-03-11T18:41:26.546Z,13.88
2023-03-11T18:43:57.136Z,14.93
2023-03-11T18:46:25.914Z,17.10
2023-03-11T18:48:54.202Z,15.88
2023-03-11T18:51:21.405Z,17.48
2023-03-11T18:53:48.812Z,19.73
2023-03-11T18:56:17.364Z,22.83
2023-03-11T18:58:45.330Z,21.85
2023-03-11T19:01:18.462Z,21.33
2023-03-11T19:03:50.366Z,21.50
2023-03-11T19:06:17.982Z,19.35
2023-03-11T19:08:45.230Z,22.00
2023-03-11T19:11:18.610Z,19.98
2023-03-11T19:13:47.708Z,22.17
2023-03-11T19:16:18.643Z,22.48
2023-03-11T19:18:46.112Z,18.17
2023-03-11T19:21:15.011Z,24.70
2023-03-11T19:23:42.631Z,22.67
2023-03-11T19:26:10.194Z,26.27
2023-03-11T19:28:37.460Z,20.27
2023-03-11T19:31:05.455Z,17.73
2023-03-11T19:33:32.968Z,19.05
2023-03-11T19:36:02.611Z,23.90
2023-03-11T19:38:30.245Z,21.20
2023-03-11T19:41:12.497Z,16.75
2023-03-11T19:43:40.109Z,18.58
2023-03-11T19:46:09.268Z,17.30
2023-03-11T19:48:36.657Z,12.20
2023-03-11T19:51:05.868Z,10.98
2023-03-11T19:53:34.598Z,11.52
2023-03-11T19:56:03.879Z,11.75
2023-03-11T19:58:31.890Z,8.88
2023-03-11T20:01:00.064Z,9.95
2023-03-11T20:03:28.142Z,10.20
2023-03-11T20:05:57.780Z,10.10
2023-03-11T20:08:25.955Z,10.15
2023-03-11T20:11:07.871Z,7.20
2023-03-11T20:13:46.007Z,8.25
2023-03-11T20:16:18.751Z,12.82
2023-03-11T20:18:50.301Z,11.32
2023-03-11T20:21:19.685Z,12.57
2023-03-11T20:23:48.875Z,13.20
2023-03-11T20:26:24.336Z,16.60
2023-03-11T20:28:57.824Z,11.18
2023-03-11T20:31:26.726Z,16.53
2023-03-11T20:33:54.631Z,11.48
2023-03-11T20:36:24.918Z,12.82
2023-03-11T20:38:54.124Z,14.02
2023-03-11T20:41:23.408Z,13.57
2023-03-11T20:43:55.728Z,13.80
2023-03-11T20:46:23.170Z,13.52
2023-03-11T20:48:51.172Z,11.38
2023-03-11T20:51:20.836Z,10.75
2023-03-11T20:53:49.194Z,14.80
2023-03-11T20:56:19.055Z,11.73
2023-03-11T20:58:48.889Z,12.73
2023-03-11T21:01:21.506Z,11.25
2023-03-11T21:03:49.079Z,8.68
2023-03-11T21:06:18.102Z,13.70
2023-03-11T21:08:46.063Z,8.48
2023-03-11T21:11:13.991Z,12.82
2023-03-11T21:13:41.874Z,10.63
2023-03-11T21:16:10.033Z,9.10
2023-03-11T21:18:38.009Z,15.02
2023-03-11T21:21:08.543Z,11.43
2023-03-11T21:23:36.096Z,6.95
2023-03-11T21:26:05.337Z,7.50
2023-03-11T21:28:34.521Z,6.38
2023-03-11T21:31:04.944Z,6.50
2023-03-11T21:33:32.739Z,8.25
2023-03-11T21:36:01.358Z,7.72
2023-03-11T21:38:29.502Z,6.07
2023-03-11T21:41:15.637Z,4.60
2023-03-11T21:43:44.204Z,5.20
2023-03-11T21:46:17.676Z,5.38
2023-03-11T21:48:46.098Z,6.72
2023-03-11T21:51:14.737Z,5.13
2023-03-11T21:53:41.986Z,4.95
2023-03-11T21:56:10.045Z,5.30
2023-03-11T21:58:40.049Z,4.60
2023-03-11T22:01:08.554Z,5.88
2023-03-11T22:03:37.058Z,4.22
2023-03-11T22:06:07.363Z,6.10
2023-03-11T22:08:42.465Z,6.63
2023-03-11T22:11:18.495Z,4.07
2023-03-11T22:13:48.158Z,6.60
2023-03-11T22:16:15.778Z,5.30
2023-03-11T22:18:44.193Z,5.35
2023-03-11T22:21:11.604Z,5.57
2023-03-11T22:23:38.905Z,8.70
2023-03-11T22:26:06.172Z,8.90
2023-03-11T22:28:33.695Z,4.32
2023-03-11T22:31:07.294Z,7.97
2023-03-11T22:33:35.404Z,6.70
2023-03-11T22:36:04.776Z,8.05
2023-03-11T22:38:32.727Z,4.55
2023-03-11T22:41:00.515Z,4.35
2023-03-11T22:43:27.908Z,3.25
2023-03-11T22:45:55.289Z,5.55
2023-03-11T22:48:22.630Z,4.60
2023-03-11T22:50:49.798Z,4.65
2023-03-11T22:53:17.425Z,6.97
2023-03-11T22:55:44.951Z,6.22
2023-03-11T22:58:12.488Z,4.85
2023-03-11T23:00:40.464Z,6.20
2023-03-11T23:03:07.708Z,3.65
2023-03-11T23:05:41.699Z,7.32
2023-03-11T23:08:12.002Z,4.15
2023-03-11T23:10:47.142Z,7.70
2023-03-11T23:13:14.926Z,6.53
2023-03-11T23:15:44.079Z,7.07
2023-03-11T23:18:12.409Z,6.60
2023-03-11T23:20:44.004Z,9.13
2023-03-11T23:23:12.088Z,4.95
2023-03-11T23:25:41.092Z,5.20
2023-03-11T23:28:08.488Z,5.55
2023-03-11T23:30:35.933Z,6.00
2023-03-11T23:33:03.919Z,5.18
2023-03-11T23:35:32.382Z,3.92
2023-03-11T23:38:00.071Z,5.95
2023-03-11T23:40:27.663Z,5.57
2023-03-11T23:42:55.305Z,4.97
2023-03-11T23:45:22.789Z,5.30
2023-03-11T23:47:50.096Z,11.93
2023-03-11T23:50:17.693Z,4.68
2023-03-11T23:52:44.805Z,7.97
2023-03-11T23:55:12.340Z,6.60
2023-03-11T23:57:39.553Z,4.10
